Terminal Aerodrome Forecast
Issued by NWS

Home | Current Version | Previous Version | Text Only | Print | Product List | Glossary Off
Versions: 1 2 3 4 5 6 7 8 9 10 11 12 13 14 15 16 17 18 19 20

000
FTUS43 KGRB 210520
TAFRHI
TAF
KRHI 210520Z 2106/2206 24012G20KT P6SM SCT200 WS015/28040KT
     FM210800 26016G26KT P6SM SCT035
     FM211100 29015G25KT P6SM SCT020 OVC030 PROB30 2115/2119 4SM
      -SHSN BKN020
     FM212200 30009KT P6SM BKN035=

USA.gov is the U.S. government's official web portal to all federal, state and local government web resources and services.